San Francisco, California
Traffic Map
Current Weather Conditions
San Francisco, California
Scattered Clouds
Scattered Clouds
43°
Feels Like: 43°
Wind Chill: 43° Ceiling: Unl
Heat Index: 43° Visibility: 10mi
Dew Point: 37° Wind: 0mph
Humidity: 80% Direction: ° ()
Pressure: 30.31in Gusts: 0mph
Raw Report DataKSFO 121156Z 00000KT 10SM SCT200 06/03 A3031 RMK AO2 SLP264 T00610028 10128 20061 58005
Traffic Incident Summary
Active as of:
Severity:
Category:
InformationThere was an issue retrieving the traffic information for this location. Please try a different location or try again shortly.
Advertisements